Wetterdaten: Woche 16.11.15 - 22.11.15 (KW47)
Datum Zeit Temperatur Luftfeuchte Luftdruck Niederschlag Windrichtung Sonnenschein Solar Wind
16.11.2015 00:00 9,8 C 80 % 1018,6 hPa 0,0 l/m SW 0,00 h 0 W/m 0,8 km/h (0 Bft)
16.11.2015 01:00 8,8 C 84 % 1018,4 hPa 0,0 l/m SW 0,00 h 0 W/m 6,3 km/h (2 Bft)
16.11.2015 02:00 8,4 C 85 % 1018,4 hPa 0,0 l/m SW 0,00 h 0 W/m 3,2 km/h (1 Bft)
16.11.2015 03:00 8,2 C 88 % 1018,0 hPa 0,0 l/m SW 0,00 h 0 W/m 9,5 km/h (2 Bft)
16.11.2015 04:00 9,1 C 84 % 1017,6 hPa 0,0 l/m SW 0,00 h 0 W/m 6,7 km/h (2 Bft)
16.11.2015 05:00 7,6 C 85 % 1017,6 hPa 0,0 l/m SW 0,00 h 0 W/m 1,1 km/h (0 Bft)
16.11.2015 06:00 6,4 C 87 % 1017,5 hPa 0,0 l/m N 0,00 h 0 W/m 0,0 km/h (0 Bft)
16.11.2015 07:00 5,4 C 89 % 1017,5 hPa 0,0 l/m N 0,08 h 12 W/m 0,0 km/h (0 Bft)
16.11.2015 08:00 6,1 C 94 % 1017,7 hPa 0,0 l/m SW 0,00 h 42 W/m 5,7 km/h (1 Bft)
16.11.2015 09:00 8,6 C 94 % 1017,8 hPa 0,0 l/m SW 0,17 h 128 W/m 9,7 km/h (2 Bft)
16.11.2015 10:00 10,5 C 87 % 1017,8 hPa 0,0 l/m S-SW 0,67 h 194 W/m 12,4 km/h (3 Bft)
16.11.2015 11:00 13,6 C 75 % 1017,6 hPa 0,0 l/m SW 0,92 h 339 W/m 17,7 km/h (3 Bft)
16.11.2015 12:00 15,3 C 68 % 1017,2 hPa 0,0 l/m SW 1,00 h 325 W/m 19,8 km/h (4 Bft)
16.11.2015 13:00 15,9 C 61 % 1016,9 hPa 0,0 l/m W-SW 1,00 h 270 W/m 24,5 km/h (4 Bft)
16.11.2015 14:00 16,1 C 59 % 1016,4 hPa 0,0 l/m W-SW 1,00 h 256 W/m 23,9 km/h (4 Bft)
16.11.2015 15:00 16,0 C 54 % 1016,0 hPa 0,0 l/m W-SW 1,00 h 137 W/m 23,1 km/h (4 Bft)
16.11.2015 16:00 14,5 C 57 % 1015,8 hPa 0,0 l/m W-SW 0,25 h 17 W/m 18,0 km/h (3 Bft)
16.11.2015 17:00 13,3 C 62 % 1016,0 hPa 0,0 l/m W-SW 0,00 h 0 W/m 16,6 km/h (3 Bft)
16.11.2015 18:00 12,4 C 65 % 1016,6 hPa 0,0 l/m SW 0,00 h 0 W/m 14,6 km/h (3 Bft)
16.11.2015 19:00 10,5 C 71 % 1016,8 hPa 0,0 l/m W-SW 0,00 h 0 W/m 1,5 km/h (1 Bft)
16.11.2015 20:00 8,5 C 80 % 1016,8 hPa 0,0 l/m SW 0,00 h 0 W/m 4,2 km/h (1 Bft)
16.11.2015 21:00 7,8 C 83 % 1017,3 hPa 0,0 l/m N 0,00 h 0 W/m 0,4 km/h (0 Bft)
16.11.2015 22:00 6,7 C 85 % 1017,2 hPa 0,0 l/m SW 0,00 h 0 W/m 6,6 km/h (2 Bft)
16.11.2015 23:00 9,6 C 69 % 1017,2 hPa 0,0 l/m S-SW 0,00 h 0 W/m 17,0 km/h (3 Bft)
17.11.2015 00:00 8,0 C 75 % 1017,4 hPa 0,0 l/m O-NO 0,00 h 0 W/m 2,9 km/h (1 Bft)
17.11.2015 01:00 6,9 C 80 % 1017,2 hPa 0,0 l/m SW 0,00 h 0 W/m 10,3 km/h (2 Bft)
17.11.2015 02:00 8,8 C 74 % 1016,9 hPa 0,0 l/m W-SW 0,00 h 0 W/m 19,6 km/h (3 Bft)
17.11.2015 03:00 8,7 C 77 % 1016,8 hPa 0,0 l/m SW 0,00 h 0 W/m 17,4 km/h (3 Bft)
17.11.2015 04:00 7,7 C 85 % 1016,9 hPa 0,0 l/m SW 0,00 h 0 W/m 18,6 km/h (3 Bft)
17.11.2015 05:00 8,5 C 85 % 1017,2 hPa 0,0 l/m W-SW 0,00 h 0 W/m 22,3 km/h (4 Bft)
17.11.2015 06:00 8,2 C 88 % 1016,7 hPa 0,0 l/m W-SW 0,00 h 0 W/m 23,5 km/h (4 Bft)
17.11.2015 07:00 7,8 C 90 % 1016,8 hPa 0,0 l/m SW 0,00 h 5 W/m 18,0 km/h (3 Bft)
17.11.2015 08:00 7,6 C 90 % 1017,3 hPa 0,0 l/m SW 0,00 h 19 W/m 13,6 km/h (3 Bft)
17.11.2015 09:00 8,4 C 88 % 1017,2 hPa 0,0 l/m SW 0,00 h 46 W/m 18,5 km/h (3 Bft)
17.11.2015 10:00 9,1 C 87 % 1017,2 hPa 0,4 l/m SW 0,00 h 38 W/m 20,5 km/h (4 Bft)
17.11.2015 11:00 9,2 C 91 % 1017,0 hPa 0,2 l/m SW 0,00 h 81 W/m 16,2 km/h (3 Bft)
17.11.2015 12:00 10,8 C 85 % 1016,5 hPa 0,0 l/m W-SW 0,00 h 98 W/m 25,5 km/h (4 Bft)
17.11.2015 13:00 12,0 C 79 % 1016,2 hPa 0,0 l/m W-SW 0,00 h 77 W/m 29,8 km/h (5 Bft)
17.11.2015 14:00 12,3 C 80 % 1016,0 hPa 0,0 l/m W-SW 0,00 h 56 W/m 32,2 km/h (5 Bft)
17.11.2015 15:00 12,4 C 82 % 1016,5 hPa 0,0 l/m W-SW 0,00 h 27 W/m 20,4 km/h (4 Bft)
17.11.2015 16:00 12,4 C 86 % 1016,4 hPa 0,0 l/m W-SW 0,00 h 12 W/m 22,0 km/h (4 Bft)
17.11.2015 17:00 12,5 C 85 % 1016,4 hPa 0,0 l/m W-SW 0,00 h 0 W/m 27,8 km/h (4 Bft)
17.11.2015 18:00 12,4 C 85 % 1016,5 hPa 0,0 l/m W-SW 0,00 h 0 W/m 25,3 km/h (4 Bft)
17.11.2015 19:00 12,3 C 86 % 1016,6 hPa 0,0 l/m W-SW 0,00 h 0 W/m 21,8 km/h (4 Bft)
17.11.2015 20:00 12,4 C 85 % 1016,8 hPa 0,0 l/m W-SW 0,00 h 0 W/m 28,0 km/h (4 Bft)
17.11.2015 21:00 12,7 C 82 % 1016,3 hPa 0,0 l/m W-SW 0,00 h 0 W/m 27,6 km/h (4 Bft)
17.11.2015 22:00 13,2 C 80 % 1016,1 hPa 0,0 l/m W-SW 0,00 h 0 W/m 32,9 km/h (5 Bft)
17.11.2015 23:00 13,6 C 78 % 1015,6 hPa 0,0 l/m SW 0,00 h 0 W/m 30,4 km/h (5 Bft)
18.11.2015 00:00 13,8 C 78 % 1015,6 hPa 0,0 l/m W-SW 0,00 h 0 W/m 29,2 km/h (5 Bft)
18.11.2015 01:00 13,7 C 81 % 1015,5 hPa 0,0 l/m SW 0,00 h 0 W/m 33,3 km/h (5 Bft)
18.11.2015 02:00 13,4 C 85 % 1015,4 hPa 0,0 l/m W-SW 0,00 h 0 W/m 35,1 km/h (5 Bft)
18.11.2015 03:00 13,3 C 86 % 1015,5 hPa 0,0 l/m SW 0,00 h 0 W/m 34,5 km/h (5 Bft)
18.11.2015 04:00 13,3 C 84 % 1016,2 hPa 0,0 l/m W-SW 0,00 h 0 W/m 33,0 km/h (5 Bft)
18.11.2015 05:00 12,9 C 81 % 1017,3 hPa 0,0 l/m W-SW 0,00 h 0 W/m 26,0 km/h (4 Bft)
18.11.2015 06:00 12,4 C 77 % 1017,6 hPa 0,0 l/m SW 0,00 h 0 W/m 34,5 km/h (5 Bft)
18.11.2015 07:00 12,0 C 79 % 1018,4 hPa 0,0 l/m W-SW 0,00 h 8 W/m 28,2 km/h (4 Bft)
18.11.2015 08:00 12,3 C 79 % 1019,4 hPa 0,0 l/m SW 0,00 h 32 W/m 31,7 km/h (5 Bft)
18.11.2015 09:00 12,9 C 76 % 1019,8 hPa 0,0 l/m W 0,42 h 130 W/m 37,1 km/h (5 Bft)
18.11.2015 10:00 13,6 C 70 % 1020,7 hPa 0,0 l/m W-SW 0,50 h 179 W/m 33,0 km/h (5 Bft)
18.11.2015 11:00 14,2 C 63 % 1020,8 hPa 0,0 l/m W-SW 0,92 h 342 W/m 29,6 km/h (5 Bft)
18.11.2015 12:00 15,1 C 59 % 1020,3 hPa 0,0 l/m W-SW 1,00 h 393 W/m 33,5 km/h (5 Bft)
18.11.2015 13:00 15,3 C 56 % 1020,0 hPa 0,0 l/m W 1,00 h 356 W/m 31,0 km/h (5 Bft)
18.11.2015 14:00 15,3 C 61 % 1019,2 hPa 0,0 l/m W-SW 1,00 h 267 W/m 31,9 km/h (5 Bft)
18.11.2015 15:00 14,9 C 65 % 1019,0 hPa 0,0 l/m W-SW 0,83 h 112 W/m 25,6 km/h (4 Bft)
18.11.2015 16:00 13,8 C 69 % 1018,9 hPa 0,0 l/m W-SW 0,08 h 11 W/m 21,2 km/h (4 Bft)
18.11.2015 17:00 12,8 C 72 % 1019,1 hPa 0,0 l/m W-SW 0,00 h 0 W/m 12,2 km/h (2 Bft)
18.11.2015 18:00 11,9 C 74 % 1019,0 hPa 0,0 l/m W-SW 0,00 h 0 W/m 16,0 km/h (3 Bft)
18.11.2015 19:00 11,2 C 76 % 1018,9 hPa 0,0 l/m W-SW 0,00 h 0 W/m 17,6 km/h (3 Bft)
18.11.2015 20:00 10,9 C 77 % 1018,6 hPa 0,0 l/m W-SW 0,00 h 0 W/m 26,3 km/h (4 Bft)
18.11.2015 21:00 10,8 C 76 % 1018,8 hPa 0,0 l/m SW 0,00 h 0 W/m 31,3 km/h (5 Bft)
18.11.2015 22:00 10,4 C 70 % 1019,8 hPa 0,0 l/m W-SW 0,00 h 0 W/m 26,6 km/h (4 Bft)
18.11.2015 23:00 10,1 C 72 % 1020,3 hPa 0,0 l/m SW 0,00 h 0 W/m 31,1 km/h (5 Bft)
19.11.2015 00:00 10,0 C 74 % 1020,3 hPa 0,0 l/m W-SW 0,00 h 0 W/m 26,2 km/h (4 Bft)
19.11.2015 01:00 9,8 C 71 % 1019,9 hPa 0,0 l/m W-SW 0,00 h 0 W/m 25,3 km/h (4 Bft)
19.11.2015 02:00 9,0 C 73 % 1019,6 hPa 0,0 l/m SW 0,00 h 0 W/m 23,2 km/h (4 Bft)
19.11.2015 03:00 8,9 C 73 % 1019,3 hPa 0,0 l/m W-SW 0,00 h 0 W/m 19,3 km/h (3 Bft)
19.11.2015 04:00 10,6 C 67 % 1019,1 hPa 0,0 l/m W-SW 0,00 h 0 W/m 29,1 km/h (5 Bft)
19.11.2015 05:00 11,6 C 65 % 1019,2 hPa 0,0 l/m W 0,00 h 0 W/m 25,8 km/h (4 Bft)
19.11.2015 06:00 11,6 C 72 % 1019,0 hPa 0,0 l/m W-SW 0,00 h 0 W/m 30,1 km/h (5 Bft)
19.11.2015 07:00 11,1 C 78 % 1019,2 hPa 0,0 l/m W-SW 0,08 h 8 W/m 26,9 km/h (4 Bft)
19.11.2015 08:00 11,1 C 79 % 1019,5 hPa 0,0 l/m W-SW 0,00 h 34 W/m 28,8 km/h (5 Bft)
19.11.2015 09:00 11,9 C 78 % 1019,8 hPa 0,0 l/m W-SW 0,42 h 127 W/m 27,0 km/h (4 Bft)
19.11.2015 10:00 12,5 C 75 % 1020,4 hPa 0,0 l/m W 0,58 h 188 W/m 28,7 km/h (4 Bft)
19.11.2015 11:00 12,9 C 71 % 1019,9 hPa 0,0 l/m W 0,25 h 175 W/m 33,0 km/h (5 Bft)
19.11.2015 12:00 13,1 C 66 % 1019,4 hPa 0,0 l/m W 0,50 h 255 W/m 33,5 km/h (5 Bft)
19.11.2015 13:00 13,8 C 64 % 1018,9 hPa 0,0 l/m W-SW 0,92 h 340 W/m 29,2 km/h (5 Bft)
19.11.2015 14:00 13,9 C 64 % 1018,4 hPa 0,0 l/m W-SW 0,25 h 133 W/m 25,8 km/h (4 Bft)
19.11.2015 15:00 13,3 C 66 % 1018,3 hPa 0,2 l/m W-SW 0,42 h 86 W/m 22,3 km/h (4 Bft)
19.11.2015 16:00 12,7 C 69 % 1017,6 hPa 0,0 l/m W-SW 0,00 h 12 W/m 23,3 km/h (4 Bft)
19.11.2015 17:00 12,7 C 72 % 1017,4 hPa 0,0 l/m W-SW 0,00 h 0 W/m 24,0 km/h (4 Bft)
19.11.2015 18:00 12,8 C 72 % 1016,8 hPa 0,0 l/m W-SW 0,00 h 0 W/m 26,6 km/h (4 Bft)
19.11.2015 19:00 12,2 C 78 % 1016,1 hPa 0,0 l/m SW 0,00 h 0 W/m 20,8 km/h (4 Bft)
19.11.2015 20:00 12,9 C 76 % 1015,6 hPa 0,0 l/m W-SW 0,00 h 0 W/m 31,3 km/h (5 Bft)
19.11.2015 21:00 13,6 C 75 % 1015,1 hPa 0,0 l/m W-SW 0,00 h 0 W/m 36,7 km/h (5 Bft)
19.11.2015 22:00 13,5 C 77 % 1014,7 hPa 0,0 l/m W-SW 0,00 h 0 W/m 40,5 km/h (6 Bft)
19.11.2015 23:00 13,7 C 78 % 1014,3 hPa 0,0 l/m W-SW 0,00 h 0 W/m 35,9 km/h (5 Bft)
20.11.2015 00:00 13,1 C 84 % 1013,9 hPa 0,0 l/m W-SW 0,00 h 0 W/m 32,9 km/h (5 Bft)
20.11.2015 01:00 12,5 C 89 % 1013,6 hPa 0,0 l/m W-SW 0,00 h 0 W/m 28,8 km/h (5 Bft)
20.11.2015 02:00 12,3 C 90 % 1013,1 hPa 0,2 l/m W-SW 0,00 h 0 W/m 35,4 km/h (5 Bft)
20.11.2015 03:00 12,6 C 89 % 1012,4 hPa 0,0 l/m W-SW 0,00 h 0 W/m 36,5 km/h (5 Bft)
20.11.2015 04:00 12,7 C 85 % 1011,9 hPa 0,0 l/m W-SW 0,00 h 0 W/m 39,3 km/h (6 Bft)
20.11.2015 05:00 12,6 C 85 % 1011,5 hPa 0,0 l/m W-SW 0,00 h 0 W/m 40,3 km/h (6 Bft)
20.11.2015 06:00 11,6 C 89 % 1011,1 hPa 0,4 l/m W-SW 0,00 h 0 W/m 35,5 km/h (5 Bft)
20.11.2015 07:00 11,1 C 92 % 1010,4 hPa 0,4 l/m W-SW 0,00 h 0 W/m 32,6 km/h (5 Bft)
20.11.2015 08:00 11,1 C 93 % 1009,8 hPa 0,2 l/m W-SW 0,00 h 9 W/m 32,0 km/h (5 Bft)
20.11.2015 09:00 11,1 C 92 % 1008,8 hPa 0,8 l/m W-SW 0,00 h 21 W/m 30,5 km/h (5 Bft)
20.11.2015 10:00 10,8 C 93 % 1008,1 hPa 0,8 l/m W-SW 0,00 h 32 W/m 33,8 km/h (5 Bft)
20.11.2015 11:00 10,7 C 94 % 1006,5 hPa 2,6 l/m W-SW 0,00 h 28 W/m 21,6 km/h (4 Bft)
20.11.2015 12:00 10,6 C 96 % 1004,3 hPa 3,6 l/m W-SW 0,00 h 32 W/m 11,1 km/h (2 Bft)
20.11.2015 13:00 10,8 C 97 % 1002,1 hPa 2,2 l/m W-SW 0,00 h 33 W/m 26,8 km/h (4 Bft)
20.11.2015 14:00 11,2 C 97 % 1000,4 hPa 3,8 l/m W-SW 0,00 h 18 W/m 29,4 km/h (5 Bft)
20.11.2015 15:00 11,4 C 97 % 999,6 hPa 4,4 l/m W 0,00 h 7 W/m 19,6 km/h (3 Bft)
20.11.2015 16:00 10,8 C 97 % 998,3 hPa 7,0 l/m W-SW 0,00 h 0 W/m 7,9 km/h (2 Bft)
20.11.2015 17:00 10,5 C 97 % 997,2 hPa 12,4 l/m W 0,00 h 0 W/m 20,4 km/h (4 Bft)
20.11.2015 18:00 9,7 C 97 % 997,0 hPa 4,2 l/m W 0,00 h 0 W/m 18,2 km/h (3 Bft)
20.11.2015 19:00 8,9 C 97 % 997,5 hPa 3,6 l/m N-NO 0,00 h 0 W/m 15,8 km/h (3 Bft)
20.11.2015 20:00 6,9 C 96 % 998,2 hPa 3,2 l/m N 0,00 h 0 W/m 18,2 km/h (3 Bft)
20.11.2015 21:00 5,1 C 95 % 999,5 hPa 1,2 l/m N 0,00 h 0 W/m 10,6 km/h (2 Bft)
20.11.2015 22:00 4,3 C 96 % 1000,1 hPa 1,2 l/m N-NW 0,00 h 0 W/m 3,1 km/h (1 Bft)
20.11.2015 23:00 3,9 C 96 % 1000,6 hPa 2,4 l/m W-NW 0,00 h 0 W/m 9,0 km/h (2 Bft)
21.11.2015 00:00 3,5 C 96 % 1000,7 hPa 2,6 l/m W-SW 0,00 h 0 W/m 10,9 km/h (2 Bft)
21.11.2015 01:00 3,2 C 97 % 1000,0 hPa 0,4 l/m W-SW 0,00 h 0 W/m 9,5 km/h (2 Bft)
21.11.2015 02:00 3,3 C 97 % 999,5 hPa 0,0 l/m W-SW 0,00 h 0 W/m 7,9 km/h (2 Bft)
21.11.2015 03:00 3,2 C 97 % 998,5 hPa 0,0 l/m W-SW 0,00 h 0 W/m 13,2 km/h (3 Bft)
21.11.2015 04:00 3,2 C 97 % 998,0 hPa 0,0 l/m W-SW 0,00 h 0 W/m 8,8 km/h (2 Bft)
21.11.2015 05:00 2,6 C 96 % 998,0 hPa 0,0 l/m W-NW 0,00 h 0 W/m 16,0 km/h (3 Bft)
21.11.2015 06:00 2,1 C 95 % 997,7 hPa 0,0 l/m W-NW 0,00 h 0 W/m 2,3 km/h (1 Bft)
21.11.2015 07:00 1,4 C 95 % 997,6 hPa 0,0 l/m W-NW 0,00 h 6 W/m 0,8 km/h (0 Bft)
21.11.2015 08:00 0,7 C 95 % 997,3 hPa 0,0 l/m W-NW 0,00 h 18 W/m 6,8 km/h (2 Bft)
21.11.2015 09:00 1,6 C 95 % 997,2 hPa 0,0 l/m SW 0,67 h 165 W/m 8,9 km/h (2 Bft)
21.11.2015 10:00 2,6 C 95 % 997,3 hPa 0,0 l/m S-SW 0,42 h 171 W/m 4,7 km/h (1 Bft)
21.11.2015 11:00 3,8 C 93 % 996,7 hPa 0,0 l/m S-SW 0,50 h 243 W/m 13,2 km/h (3 Bft)
21.11.2015 12:00 4,8 C 86 % 995,7 hPa 0,0 l/m SW 0,42 h 238 W/m 14,9 km/h (3 Bft)
21.11.2015 13:00 4,7 C 88 % 995,1 hPa 0,0 l/m S-SW 0,00 h 72 W/m 16,0 km/h (3 Bft)
21.11.2015 14:00 4,2 C 87 % 994,7 hPa 0,2 l/m SW 0,00 h 37 W/m 14,6 km/h (3 Bft)
21.11.2015 15:00 3,7 C 91 % 994,7 hPa 0,2 l/m W-SW 0,00 h 50 W/m 10,5 km/h (2 Bft)
21.11.2015 16:00 3,2 C 93 % 995,1 hPa 0,2 l/m SW 0,00 h 8 W/m 15,2 km/h (3 Bft)
21.11.2015 17:00 1,3 C 93 % 996,1 hPa 0,0 l/m NW 0,00 h 0 W/m 13,8 km/h (3 Bft)
21.11.2015 18:00 0,9 C 94 % 997,2 hPa 0,0 l/m W 0,00 h 0 W/m 13,1 km/h (3 Bft)
21.11.2015 19:00 0,7 C 92 % 998,4 hPa 0,0 l/m W-NW 0,00 h 0 W/m 19,3 km/h (3 Bft)
21.11.2015 20:00 0,4 C 90 % 999,1 hPa 0,0 l/m W-SW 0,00 h 0 W/m 12,2 km/h (2 Bft)
21.11.2015 21:00 0,5 C 91 % 999,5 hPa 0,0 l/m W-SW 0,00 h 0 W/m 15,3 km/h (3 Bft)
21.11.2015 22:00 0,1 C 91 % 999,6 hPa 0,0 l/m W-SW 0,00 h 0 W/m 17,7 km/h (3 Bft)
21.11.2015 23:00 0,1 C 90 % 999,6 hPa 0,0 l/m W-SW 0,00 h 0 W/m 16,2 km/h (3 Bft)
22.11.2015 00:00 -0,2 C 93 % 999,8 hPa 0,0 l/m W-SW 0,00 h 0 W/m 15,4 km/h (3 Bft)
22.11.2015 01:00 -0,3 C 95 % 999,7 hPa 0,0 l/m W-SW 0,00 h 0 W/m 18,8 km/h (3 Bft)
22.11.2015 02:00 -0,4 C 95 % 1000,0 hPa 0,0 l/m W-SW 0,00 h 0 W/m 12,3 km/h (3 Bft)
22.11.2015 03:00 -0,6 C 95 % 1000,5 hPa 0,0 l/m W 0,00 h 0 W/m 9,1 km/h (2 Bft)
22.11.2015 04:00 -0,4 C 96 % 1001,0 hPa 0,0 l/m W 0,00 h 0 W/m 7,8 km/h (2 Bft)
22.11.2015 05:00 -0,3 C 96 % 1001,8 hPa 0,0 l/m W 0,00 h 0 W/m 6,1 km/h (2 Bft)
22.11.2015 06:00 -0,3 C 96 % 1002,5 hPa 0,0 l/m W 0,00 h 0 W/m 12,2 km/h (2 Bft)
22.11.2015 07:00 -0,3 C 96 % 1003,3 hPa 0,0 l/m W 0,00 h 0 W/m 8,7 km/h (2 Bft)
22.11.2015 08:00 -0,2 C 95 % 1004,2 hPa 0,0 l/m W-NW 0,00 h 9 W/m 7,6 km/h (2 Bft)
22.11.2015 09:00 0,1 C 96 % 1005,0 hPa 0,0 l/m W 0,00 h 31 W/m 7,0 km/h (2 Bft)
22.11.2015 10:00 0,5 C 96 % 1005,9 hPa 0,0 l/m W-NW 0,00 h 24 W/m 14,4 km/h (3 Bft)
22.11.2015 11:00 0,4 C 95 % 1006,7 hPa 0,2 l/m N-NW 0,00 h 81 W/m 16,2 km/h (3 Bft)
22.11.2015 12:00 0,5 C 90 % 1007,3 hPa 0,4 l/m N-NW 0,08 h 131 W/m 13,4 km/h (3 Bft)
22.11.2015 13:00 1,2 C 86 % 1007,8 hPa 0,2 l/m NW 0,00 h 64 W/m 6,4 km/h (2 Bft)
22.11.2015 14:00 1,2 C 86 % 1008,4 hPa 0,2 l/m W-NW 0,00 h 34 W/m 8,3 km/h (2 Bft)
22.11.2015 15:00 0,9 C 88 % 1009,1 hPa 0,6 l/m N 0,17 h 36 W/m 4,7 km/h (1 Bft)
22.11.2015 16:00 0,6 C 89 % 1009,7 hPa 0,4 l/m N 0,08 h 9 W/m 0,1 km/h (0 Bft)
22.11.2015 17:00 -0,2 C 90 % 1010,2 hPa 0,2 l/m NW 0,00 h 0 W/m 3,9 km/h (1 Bft)
22.11.2015 18:00 -0,7 C 91 % 1011,1 hPa 0,0 l/m W-SW 0,00 h 0 W/m 5,9 km/h (2 Bft)
22.11.2015 19:00 -1,0 C 92 % 1011,9 hPa 0,0 l/m W-SW 0,00 h 0 W/m 9,1 km/h (2 Bft)
22.11.2015 20:00 -0,8 C 91 % 1012,5 hPa 0,0 l/m W 0,00 h 0 W/m 13,6 km/h (3 Bft)
22.11.2015 21:00 -0,4 C 90 % 1013,4 hPa 0,0 l/m W 0,00 h 0 W/m 8,4 km/h (2 Bft)
22.11.2015 22:00 -0,5 C 91 % 1013,9 hPa 0,0 l/m W 0,00 h 0 W/m 7,3 km/h (2 Bft)
22.11.2015 23:00 -0,6 C 93 % 1014,3 hPa 0,4 l/m W-SW 0,00 h 0 W/m 7,1 km/h (2 Bft)
Min-Datum _ 22.11.15 16.11.15 21.11.15 - - - - 16.11.15
_ Min-Zeit 19:35 15:45 14:50 - - - - 00:00
Minimum _ -1,1 C 53 % 994,5 hPa - - - - 0,0 km/h (0 Bft)
Max-Datum _ 16.11.15 21.11.15 18.11.15 20.11.15 - 16.11.15 21.11.15 19.11.15
_ Max-Zeit 14:30 10:20 11:15 17:10 - 07:40 12:20 13:05
Maximum _ 16,3 C 100 % 1021,1 hPa 12,4 l/m - 0,08 h 480 W/m 57,9 km/h
W-SW (7 Bft)
Durchschnitt _ 8,3 C 84 % 1011,5 hPa #61,6 l/m W-SW #17:35 h 104 W/m 19,2 km/h (3 Bft)